Time;durP1;ratioP1;P1;durP2;ratioP2;P2;SDS_P1;SDS_P2;PMS_P1;PMS_P2;Temp;Humidity;BMP_temperature;BMP_pressure;BME280_temperature;BME280_humidity;BME280_pressure;Samples;Min_cycle;Max_cycle;Signal;HPM_P1;HPM_P2
2022/03/10 00:00:46;;;;;;;31.70;20.83;;;0.20;99.90;;;;;;4992889;28;20944;-77
2022/03/10 00:03:14;;;;;;;31.60;22.80;;;0.20;99.90;;;;;;4993163;28;20476;-78
2022/03/10 00:05:40;;;;;;;32.10;22.47;;;0.20;99.90;;;;;;4993106;28;20437;-77
2022/03/10 00:08:07;;;;;;;33.30;20.53;;;0.20;99.90;;;;;;4995641;28;20475;-77
2022/03/10 00:10:35;;;;;;;32.07;20.07;;;0.20;99.90;;;;;;4997032;28;20805;-77
2022/03/10 00:13:02;;;;;;;29.87;20.37;;;0.20;99.90;;;;;;4996615;28;20453;-77
2022/03/10 00:15:29;;;;;;;26.00;20.17;;;0.20;99.90;;;;;;4996972;28;20440;-76
2022/03/10 00:17:56;;;;;;;29.80;20.03;;;0.10;99.90;;;;;;4978112;28;20993;-78
2022/03/10 00:20:23;;;;;;;38.23;22.57;;;0.10;99.90;;;;;;4996526;28;20440;-78
2022/03/10 00:22:52;;;;;;;31.73;21.47;;;0.00;99.90;;;;;;4996291;28;20814;-77
2022/03/10 00:25:19;;;;;;;33.10;21.10;;;-0.10;99.90;;;;;;4979594;28;20523;-75
2022/03/10 00:27:48;;;;;;;32.50;21.30;;;-0.10;99.90;;;;;;4990247;28;20525;-77
2022/03/10 00:30:19;;;;;;;32.20;21.20;;;-0.10;99.90;;;;;;4996197;28;20464;-77
2022/03/10 00:32:47;;;;;;;31.93;21.53;;;-0.10;99.90;;;;;;4996501;28;20464;-76
2022/03/10 00:35:19;;;;;;;34.33;23.07;;;-0.20;99.90;;;;;;4997062;28;20490;-78
2022/03/10 00:37:46;;;;;;;34.13;22.27;;;-0.10;99.90;;;;;;4978013;28;20476;-76
2022/03/10 00:40:14;;;;;;;32.97;22.23;;;-0.20;99.90;;;;;;4996741;28;20468;-77
2022/03/10 00:42:41;;;;;;;32.33;21.47;;;-0.20;99.90;;;;;;4978687;28;20468;-77
2022/03/10 00:45:10;;;;;;;41.13;22.63;;;-0.30;99.90;;;;;;4995929;28;20484;-77
2022/03/10 00:47:38;;;;;;;29.70;20.77;;;-0.30;99.90;;;;;;4995660;28;20511;-76
2022/03/10 00:50:06;;;;;;;34.27;23.40;;;-0.30;99.90;;;;;;4978921;28;20461;-78
2022/03/10 00:52:34;;;;;;;33.20;21.87;;;-0.40;99.90;;;;;;4996335;28;20441;-78
2022/03/10 00:55:01;;;;;;;30.23;21.17;;;-0.40;99.90;;;;;;4996317;28;20437;-78
2022/03/10 00:57:27;;;;;;;30.37;21.00;;;-0.50;99.90;;;;;;4995299;28;20452;-77
2022/03/10 00:59:54;;;;;;;32.00;21.67;;;-0.50;99.90;;;;;;4996135;28;20444;-77
2022/03/10 01:02:22;;;;;;;30.83;20.77;;;-0.50;99.90;;;;;;4979254;28;20457;-78
2022/03/10 01:04:49;;;;;;;33.87;22.67;;;-0.40;99.90;;;;;;4978608;28;20526;-78
2022/03/10 01:07:16;;;;;;;31.43;21.03;;;-0.40;99.90;;;;;;4994982;28;20444;-78
2022/03/10 01:09:43;;;;;;;28.17;19.53;;;-0.40;99.90;;;;;;5025257;23;20491;-75
2022/03/10 01:12:10;;;;;;;30.47;21.03;;;-0.50;99.90;;;;;;5004817;28;20972;-75
2022/03/10 01:14:37;;;;;;;31.60;21.13;;;-0.60;99.90;;;;;;4987568;28;20531;-76
2022/03/10 01:17:05;;;;;;;34.57;22.00;;;-0.60;99.90;;;;;;4984409;28;20452;-75
2022/03/10 01:19:33;;;;;;;31.33;21.57;;;-0.70;99.90;;;;;;5004414;28;20522;-75
2022/03/10 01:21:59;;;;;;;34.70;21.87;;;-0.70;99.90;;;;;;4980380;28;20472;-75
2022/03/10 01:24:26;;;;;;;31.07;21.33;;;-0.70;99.90;;;;;;4983730;28;20460;-75
2022/03/10 01:26:53;;;;;;;32.07;20.90;;;-0.70;99.90;;;;;;4999570;28;20516;-75
2022/03/10 01:29:20;;;;;;;32.13;22.10;;;-0.70;99.90;;;;;;4978796;28;20900;-75
2022/03/10 01:31:47;;;;;;;27.93;19.53;;;-0.60;99.90;;;;;;4998181;28;20942;-75
2022/03/10 01:34:14;;;;;;;28.90;20.47;;;-0.50;99.90;;;;;;4992968;28;20476;-75
2022/03/10 01:36:43;;;;;;;29.20;20.10;;;-0.50;99.90;;;;;;4996587;28;20471;-75
2022/03/10 01:39:09;;;;;;;30.13;19.93;;;-0.50;99.90;;;;;;4976945;28;21019;-76
2022/03/10 01:41:36;;;;;;;28.80;20.17;;;-0.40;99.90;;;;;;4980234;28;20452;-75
2022/03/10 01:44:08;;;;;;;29.83;19.73;;;-0.50;99.90;;;;;;4995475;28;20437;-76
2022/03/10 01:46:35;;;;;;;31.10;21.27;;;-0.60;99.90;;;;;;4989602;28;20451;-75
2022/03/10 01:49:03;;;;;;;29.80;20.50;;;-0.60;99.90;;;;;;4978840;28;20472;-75
2022/03/10 01:51:31;;;;;;;30.03;19.60;;;-0.60;99.90;;;;;;4976173;28;20466;-75
2022/03/10 01:54:00;;;;;;;27.93;18.93;;;-0.70;99.90;;;;;;4979496;28;20503;-75
2022/03/10 01:56:26;;;;;;;23.27;17.90;;;-0.70;99.90;;;;;;4976341;28;21036;-75
2022/03/10 01:58:54;;;;;;;30.80;18.90;;;-0.60;99.90;;;;;;4997646;28;21080;-75
2022/03/10 02:01:22;;;;;;;28.17;19.30;;;-0.60;99.90;;;;;;5002878;28;20820;-75
2022/03/10 02:03:49;;;;;;;31.67;20.27;;;-0.50;99.90;;;;;;4998920;28;20440;-75
2022/03/10 02:06:16;;;;;;;27.40;18.53;;;-0.50;99.90;;;;;;4979997;28;20453;-75
2022/03/10 02:11:29;;;;;;;31.20;18.73;;;-0.40;99.90;;;;;;5000788;28;20424;-76
2022/03/10 02:13:56;;;;;;;28.63;19.43;;;-0.40;99.90;;;;;;4995452;28;20473;-75
2022/03/10 02:19:08;;;;;;;29.40;19.27;;;-0.40;99.90;;;;;;5001331;28;20456;-75
2022/03/10 02:21:35;;;;;;;29.83;19.63;;;-0.50;99.90;;;;;;4999656;28;20425;-76
2022/03/10 02:24:04;;;;;;;29.13;19.70;;;-0.50;99.90;;;;;;5000768;28;20930;-75
2022/03/10 02:26:31;;;;;;;28.50;18.97;;;-0.60;99.90;;;;;;4992956;28;20433;-76
2022/03/10 02:28:59;;;;;;;25.97;18.77;;;-0.60;99.90;;;;;;5000745;28;20475;-75
2022/03/10 02:31:26;;;;;;;28.67;19.80;;;-0.60;99.90;;;;;;4996390;28;20443;-75
2022/03/10 02:33:55;;;;;;;26.17;19.07;;;-0.70;99.90;;;;;;4978684;28;20519;-75
2022/03/10 02:36:21;;;;;;;25.17;18.23;;;-0.70;99.90;;;;;;4996439;28;20536;-75
2022/03/10 02:38:48;;;;;;;25.03;17.80;;;-0.70;99.90;;;;;;4979581;28;20473;-75
2022/03/10 02:41:16;;;;;;;30.40;19.03;;;-0.70;99.90;;;;;;5005400;28;20444;-76
2022/03/10 02:43:43;;;;;;;28.27;18.83;;;-0.70;99.90;;;;;;4978221;28;20452;-75
2022/03/10 02:46:10;;;;;;;29.30;19.20;;;-0.70;99.90;;;;;;4983589;28;20906;-75
2022/03/10 02:48:37;;;;;;;28.03;19.83;;;-0.70;99.90;;;;;;4998298;28;20471;-74
2022/03/10 02:51:04;;;;;;;29.83;19.83;;;-0.70;99.90;;;;;;5000119;28;20814;-76
2022/03/10 02:53:31;;;;;;;26.20;19.30;;;-0.70;99.90;;;;;;4982631;28;20459;-75
2022/03/10 02:55:57;;;;;;;30.57;20.00;;;-0.70;99.90;;;;;;4999378;28;20999;-75
2022/03/10 02:58:26;;;;;;;31.80;19.77;;;-0.70;99.90;;;;;;4994158;28;20466;-75
2022/03/10 03:00:52;;;;;;;27.67;19.70;;;-0.80;99.90;;;;;;5003066;28;20458;-75
2022/03/10 03:03:19;;;;;;;29.03;19.03;;;-0.80;99.90;;;;;;4975688;28;20466;-76
2022/03/10 03:05:46;;;;;;;28.37;19.60;;;-0.80;99.90;;;;;;4996251;28;20500;-75
2022/03/10 03:08:13;;;;;;;34.37;20.27;;;-0.90;99.90;;;;;;4981546;28;20480;-75
2022/03/10 03:10:40;;;;;;;28.87;20.20;;;-0.90;99.90;;;;;;4999821;28;20470;-75
2022/03/10 03:13:07;;;;;;;33.53;21.83;;;-0.90;99.90;;;;;;5000429;28;20492;-75
2022/03/10 03:15:35;;;;;;;32.33;21.83;;;-1.00;99.90;;;;;;4996440;28;20845;-75
2022/03/10 03:18:02;;;;;;;28.77;19.83;;;-1.00;99.90;;;;;;4977149;28;20649;-76
2022/03/10 03:20:29;;;;;;;30.57;20.97;;;-1.00;99.90;;;;;;4992784;28;20526;-75
2022/03/10 03:22:56;;;;;;;30.67;20.83;;;-1.00;99.90;;;;;;4978539;28;20453;-75
2022/03/10 03:25:22;;;;;;;31.17;20.90;;;-1.10;99.90;;;;;;4983618;28;20459;-75
2022/03/10 03:27:49;;;;;;;30.17;20.60;;;-1.10;99.90;;;;;;4981537;28;20882;-75
2022/03/10 03:30:17;;;;;;;30.43;20.87;;;-1.00;99.90;;;;;;4999669;28;20449;-75
2022/03/10 03:32:46;;;;;;;27.87;19.60;;;-1.10;99.90;;;;;;4999636;28;20495;-75
2022/03/10 03:35:14;;;;;;;31.47;19.87;;;-1.10;99.90;;;;;;4999092;28;20558;-76
2022/03/10 03:37:41;;;;;;;29.83;20.07;;;-1.20;99.90;;;;;;4981662;28;20453;-75
2022/03/10 03:40:10;;;;;;;27.87;20.30;;;-1.20;99.90;;;;;;4973971;28;20472;-75
2022/03/10 03:42:37;;;;;;;33.60;20.90;;;-1.20;99.90;;;;;;4988178;28;20457;-74
2022/03/10 03:45:05;;;;;;;28.03;19.90;;;-1.30;99.90;;;;;;4998452;28;20440;-76
2022/03/10 03:47:32;;;;;;;34.03;21.87;;;-1.40;99.90;;;;;;4996743;28;20439;-75
2022/03/10 03:50:01;;;;;;;33.53;22.13;;;-1.40;99.90;;;;;;4995476;28;20464;-76
2022/03/10 03:52:28;;;;;;;35.67;22.13;;;-1.50;99.90;;;;;;4990516;28;20452;-75
2022/03/10 03:54:55;;;;;;;33.47;22.37;;;-1.50;99.90;;;;;;4988603;28;20472;-76
2022/03/10 03:57:22;;;;;;;36.07;22.43;;;-1.60;99.90;;;;;;4988496;28;20494;-75
2022/03/10 03:59:49;;;;;;;32.87;21.40;;;-1.60;99.90;;;;;;5003714;28;20845;-75
2022/03/10 04:02:16;;;;;;;32.43;21.20;;;-1.60;99.90;;;;;;4997550;28;20516;-75
2022/03/10 04:04:42;;;;;;;31.60;21.90;;;-1.60;99.90;;;;;;4978235;28;20528;-75
2022/03/10 04:07:10;;;;;;;30.57;21.43;;;-1.60;99.90;;;;;;5000739;28;20459;-75
2022/03/10 04:09:37;;;;;;;32.53;21.17;;;-1.60;99.90;;;;;;4984836;28;20487;-76
2022/03/10 04:12:05;;;;;;;36.43;22.97;;;-1.60;99.90;;;;;;4994377;28;20854;-75
2022/03/10 04:14:32;;;;;;;36.23;23.17;;;-1.60;99.90;;;;;;4998661;28;20523;-77
2022/03/10 04:16:58;;;;;;;36.13;22.27;;;-1.70;99.90;;;;;;4984924;28;20962;-76
2022/03/10 04:19:25;;;;;;;37.57;23.50;;;-1.70;99.90;;;;;;4989484;28;20482;-76
2022/03/10 04:21:52;;;;;;;33.53;22.27;;;-1.80;99.90;;;;;;4977670;28;20825;-73
2022/03/10 04:24:20;;;;;;;35.27;22.33;;;-1.80;99.90;;;;;;5004020;28;20439;-75
2022/03/10 04:26:47;;;;;;;33.63;22.17;;;-1.80;99.90;;;;;;5000093;28;20423;-76
2022/03/10 04:29:14;;;;;;;32.10;21.43;;;-1.80;99.90;;;;;;4997672;28;20464;-75
2022/03/10 04:31:41;;;;;;;33.53;21.97;;;-1.80;99.90;;;;;;4982710;28;20463;-76
2022/03/10 04:34:08;;;;;;;34.90;21.67;;;-1.90;99.90;;;;;;4999075;28;20440;-77
2022/03/10 04:36:35;;;;;;;31.77;20.80;;;-2.00;99.90;;;;;;4983326;28;20476;-75
2022/03/10 04:39:03;;;;;;;31.23;20.77;;;-2.00;99.90;;;;;;5002312;28;20996;-76
2022/03/10 04:41:31;;;;;;;31.57;20.30;;;-2.00;99.90;;;;;;5004702;28;20463;-76
2022/03/10 04:43:58;;;;;;;34.70;21.43;;;-2.00;99.90;;;;;;5002013;28;20435;-76
2022/03/10 04:46:25;;;;;;;36.93;21.37;;;-2.10;99.90;;;;;;4996794;28;20436;-76
2022/03/10 04:48:52;;;;;;;33.40;22.13;;;-2.20;99.90;;;;;;4981420;28;20480;-76
2022/03/10 04:51:19;;;;;;;37.53;21.87;;;-2.20;99.90;;;;;;4982777;28;20969;-75
2022/03/10 04:53:46;;;;;;;28.83;20.37;;;-2.20;99.90;;;;;;4981532;28;20960;-76
2022/03/10 04:56:12;;;;;;;28.37;19.03;;;-2.20;99.90;;;;;;5001936;28;20916;-76
2022/03/10 04:58:41;;;;;;;28.63;21.13;;;-2.30;99.90;;;;;;5001510;28;20460;-76
2022/03/10 05:01:07;;;;;;;26.80;20.43;;;-2.30;99.90;;;;;;5001925;28;20984;-76
2022/03/10 05:03:34;;;;;;;33.40;22.67;;;-2.30;99.90;;;;;;5001775;28;20437;-75
2022/03/10 05:06:01;;;;;;;33.30;22.37;;;-2.20;99.90;;;;;;5002103;28;20433;-76
2022/03/10 05:08:28;;;;;;;28.27;20.30;;;-2.10;99.90;;;;;;4994631;28;20467;-75
2022/03/10 05:10:55;;;;;;;30.43;20.93;;;-2.20;99.90;;;;;;4980837;28;20480;-76
2022/03/10 05:13:22;;;;;;;27.80;20.53;;;-2.20;99.90;;;;;;4979499;28;20511;-75
2022/03/10 05:15:50;;;;;;;29.63;19.63;;;-2.30;99.90;;;;;;4981309;28;20552;-74
2022/03/10 05:18:17;;;;;;;37.47;21.70;;;-2.30;99.90;;;;;;4983492;28;20477;-76
2022/03/10 05:20:46;;;;;;;29.63;20.20;;;-2.30;99.90;;;;;;4996308;28;20443;-75
2022/03/10 05:23:13;;;;;;;30.20;19.93;;;-2.30;99.90;;;;;;4996588;28;20964;-74
2022/03/10 05:25:41;;;;;;;29.87;20.60;;;-2.30;99.90;;;;;;5004963;28;20823;-76
2022/03/10 05:28:13;;;;;;;27.83;19.80;;;-2.30;99.90;;;;;;4996101;28;20977;-76
2022/03/10 05:30:40;;;;;;;31.50;20.33;;;-2.30;99.90;;;;;;4999910;28;20449;-76
2022/03/10 05:33:08;;;;;;;29.93;19.90;;;-2.20;99.90;;;;;;5001167;28;20432;-76
2022/03/10 05:35:35;;;;;;;25.70;19.10;;;-2.20;99.90;;;;;;4982198;28;20477;-76
2022/03/10 05:38:02;;;;;;;32.37;21.13;;;-2.20;99.90;;;;;;5000530;28;20492;-76
2022/03/10 05:40:29;;;;;;;27.40;20.73;;;-2.20;99.90;;;;;;4992763;28;20503;-76
2022/03/10 05:42:57;;;;;;;27.63;20.37;;;-2.20;99.90;;;;;;4983694;28;20865;-76
2022/03/10 05:45:25;;;;;;;32.93;20.87;;;-2.10;99.90;;;;;;4980729;28;20475;-77
2022/03/10 05:47:53;;;;;;;28.07;20.10;;;-2.10;99.90;;;;;;4978795;28;20455;-75
2022/03/10 05:50:22;;;;;;;28.07;20.30;;;-2.10;99.90;;;;;;4993905;28;20540;-76
2022/03/10 05:52:49;;;;;;;35.90;22.13;;;-2.10;99.90;;;;;;4996413;28;20432;-76
2022/03/10 05:55:17;;;;;;;28.93;21.00;;;-2.00;99.90;;;;;;5001049;28;20524;-77
2022/03/10 05:57:44;;;;;;;31.57;20.97;;;-2.00;99.90;;;;;;4982899;28;20503;-76
2022/03/10 06:00:14;;;;;;;31.93;22.27;;;-2.00;99.90;;;;;;4983478;28;20468;-77
2022/03/10 06:02:42;;;;;;;31.53;21.10;;;-2.00;99.90;;;;;;5000640;28;20934;-77
2022/03/10 06:05:10;;;;;;;29.73;21.47;;;-2.00;99.90;;;;;;5001110;28;20899;-77
2022/03/10 06:07:38;;;;;;;34.57;23.20;;;-2.00;99.90;;;;;;4979204;28;20475;-76
2022/03/10 06:10:06;;;;;;;36.67;23.17;;;-2.00;99.90;;;;;;4982879;28;20512;-76
2022/03/10 06:12:33;;;;;;;31.47;22.30;;;-1.90;99.90;;;;;;4978839;28;20451;-76
2022/03/10 06:15:02;;;;;;;34.90;22.50;;;-1.90;99.90;;;;;;5000500;28;20447;-76
2022/03/10 06:17:30;;;;;;;31.10;21.60;;;-1.90;99.90;;;;;;4993426;28;20489;-76
2022/03/10 06:19:57;;;;;;;34.97;21.93;;;-1.90;99.90;;;;;;4983162;28;20584;-76
2022/03/10 06:22:27;;;;;;;32.10;20.63;;;-1.90;99.90;;;;;;4997759;28;20443;-76
2022/03/10 06:24:55;;;;;;;36.77;22.57;;;-1.90;99.90;;;;;;4996996;28;20444;-76
2022/03/10 06:27:23;;;;;;;35.83;23.77;;;-1.70;99.90;;;;;;5005176;28;20443;-76
2022/03/10 06:29:50;;;;;;;40.20;23.63;;;-1.40;99.90;;;;;;4997605;28;20829;-76
2022/03/10 06:32:18;;;;;;;30.67;22.73;;;-1.10;99.90;;;;;;4982817;28;20449;-76
2022/03/10 06:34:46;;;;;;;31.37;22.20;;;-0.70;99.90;;;;;;4982559;28;20532;-76
2022/03/10 06:37:13;;;;;;;36.03;23.47;;;-0.20;99.90;;;;;;4982026;28;20479;-76
2022/03/10 06:39:41;;;;;;;30.87;22.80;;;0.20;99.90;;;;;;4982861;28;20472;-76
2022/03/10 06:42:10;;;;;;;29.23;21.43;;;0.50;99.90;;;;;;5001525;28;20475;-76
2022/03/10 06:44:37;;;;;;;33.20;21.70;;;0.90;99.90;;;;;;4997585;28;20531;-76
2022/03/10 06:47:05;;;;;;;29.63;21.93;;;1.10;99.90;;;;;;4994654;28;20449;-76
2022/03/10 06:49:32;;;;;;;29.90;21.63;;;1.20;99.90;;;;;;5003457;28;20965;-77
2022/03/10 06:51:58;;;;;;;31.20;22.03;;;1.40;99.90;;;;;;4978651;28;20958;-76
2022/03/10 06:54:25;;;;;;;32.57;21.60;;;1.60;99.90;;;;;;4997893;28;20878;-76
2022/03/10 06:56:52;;;;;;;27.63;20.70;;;1.70;99.90;;;;;;4984857;28;20558;-76
2022/03/10 06:59:20;;;;;;;26.40;20.10;;;1.80;99.90;;;;;;4975586;28;20474;-76
2022/03/10 07:01:47;;;;;;;29.77;21.03;;;1.90;99.90;;;;;;4978749;28;20977;-76
2022/03/10 07:04:15;;;;;;;29.70;20.87;;;1.90;99.90;;;;;;4982318;28;20453;-77
2022/03/10 07:06:41;;;;;;;25.90;19.93;;;2.00;99.90;;;;;;4981770;28;20458;-77
2022/03/10 07:09:09;;;;;;;27.87;22.03;;;2.20;99.90;;;;;;5018000;23;20495;-76
2022/03/10 07:11:35;;;;;;;28.80;21.37;;;2.30;99.90;;;;;;5002614;28;20441;-77
2022/03/10 07:14:02;;;;;;;30.40;22.07;;;2.30;99.90;;;;;;4983689;28;20450;-77
2022/03/10 07:16:30;;;;;;;29.23;20.63;;;2.60;99.90;;;;;;4998568;28;20476;-78
2022/03/10 07:18:57;;;;;;;31.07;22.43;;;2.80;99.90;;;;;;5004294;28;20950;-77
2022/03/10 07:21:24;;;;;;;30.77;23.00;;;3.10;99.90;;;;;;4978792;28;20688;-78
2022/03/10 07:23:51;;;;;;;32.53;22.27;;;3.40;99.90;;;;;;5004366;28;20512;-77
2022/03/10 07:26:20;;;;;;;32.07;21.07;;;3.70;99.90;;;;;;5003150;28;20193;-78
2022/03/10 07:28:48;;;;;;;30.83;21.97;;;4.00;99.90;;;;;;5006632;28;20255;-77
2022/03/10 07:31:15;;;;;;;31.73;23.47;;;4.20;99.90;;;;;;5015362;28;20304;-77
2022/03/10 07:33:43;;;;;;;34.73;23.13;;;4.40;99.90;;;;;;5003710;28;20195;-77
2022/03/10 07:36:10;;;;;;;29.57;21.50;;;4.80;99.90;;;;;;5001181;28;20232;-78
2022/03/10 07:38:37;;;;;;;28.50;21.50;;;5.20;99.90;;;;;;5004633;28;20213;-77
2022/03/10 07:41:04;;;;;;;29.70;22.23;;;5.50;99.90;;;;;;5001188;28;20217;-77
2022/03/10 07:43:31;;;;;;;32.27;22.03;;;5.80;99.90;;;;;;5009068;28;20542;-77
2022/03/10 07:45:57;;;;;;;29.17;22.17;;;6.10;99.90;;;;;;5004184;28;20198;-78
2022/03/10 07:48:24;;;;;;;27.87;18.23;;;6.30;99.90;;;;;;5005898;28;20209;-78
2022/03/10 07:50:53;;;;;;;27.63;19.20;;;6.60;99.90;;;;;;4987898;28;20194;-76
2022/03/10 07:53:20;;;;;;;29.10;22.13;;;6.80;99.90;;;;;;4990347;28;20203;-78
2022/03/10 07:55:47;;;;;;;27.17;21.63;;;7.00;99.90;;;;;;4986246;28;20234;-77
2022/03/10 07:58:14;;;;;;;32.40;21.30;;;7.20;99.90;;;;;;5000389;28;20196;-77
2022/03/10 08:00:41;;;;;;;33.30;19.73;;;7.30;99.90;;;;;;5003641;28;20205;-76
2022/03/10 08:03:08;;;;;;;26.00;18.73;;;7.50;99.90;;;;;;4985546;28;20775;-76
2022/03/10 08:05:36;;;;;;;31.23;20.67;;;7.90;99.90;;;;;;4986246;28;20287;-75
2022/03/10 08:08:05;;;;;;;26.90;19.77;;;8.10;99.80;;;;;;5000854;28;20197;-77
2022/03/10 08:10:32;;;;;;;24.90;18.77;;;8.30;99.90;;;;;;4986120;28;20221;-76
2022/03/10 08:12:58;;;;;;;25.47;20.77;;;8.50;99.40;;;;;;5004116;28;20681;-77
2022/03/10 08:15:26;;;;;;;30.77;19.60;;;8.80;99.10;;;;;;5000156;28;20200;-77
2022/03/10 08:17:53;;;;;;;28.53;20.57;;;8.80;99.10;;;;;;5002826;28;20256;-77
2022/03/10 08:20:20;;;;;;;31.27;22.53;;;9.10;98.80;;;;;;4999869;28;20225;-77
2022/03/10 08:22:47;;;;;;;28.90;20.20;;;9.20;98.30;;;;;;4982940;28;20206;-77
2022/03/10 08:25:15;;;;;;;29.30;21.23;;;9.50;97.80;;;;;;5006396;28;20208;-77
2022/03/10 08:27:43;;;;;;;28.30;19.87;;;9.40;97.80;;;;;;5002101;28;20677;-77
2022/03/10 08:30:13;;;;;;;27.93;20.20;;;9.60;97.20;;;;;;5006478;28;20217;-77
2022/03/10 08:32:40;;;;;;;29.03;20.00;;;9.80;97.40;;;;;;4998441;28;20603;-77
2022/03/10 08:35:07;;;;;;;26.20;19.00;;;9.70;97.00;;;;;;5006050;28;20197;-78
2022/03/10 08:37:34;;;;;;;24.60;18.63;;;9.90;97.00;;;;;;4985728;28;20240;-77
2022/03/10 08:40:01;;;;;;;27.57;19.07;;;9.90;96.70;;;;;;5000548;28;20308;-77
2022/03/10 08:42:29;;;;;;;26.23;18.87;;;10.10;96.20;;;;;;4998922;28;20198;-77
2022/03/10 08:44:56;;;;;;;24.50;17.63;;;10.00;96.70;;;;;;5002098;28;20203;-77
2022/03/10 08:47:24;;;;;;;26.80;17.70;;;10.00;96.30;;;;;;5003741;28;20185;-78
2022/03/10 08:49:51;;;;;;;23.40;16.73;;;10.10;96.00;;;;;;5007239;28;20720;-77
2022/03/10 08:52:19;;;;;;;25.27;17.33;;;10.20;95.80;;;;;;4997419;28;20202;-77
2022/03/10 08:54:46;;;;;;;24.70;18.70;;;10.40;95.50;;;;;;5002920;28;20192;-77
2022/03/10 08:57:14;;;;;;;24.97;17.20;;;10.40;95.40;;;;;;5006195;28;20221;-77
2022/03/10 08:59:42;;;;;;;22.57;16.97;;;10.50;95.20;;;;;;4996403;28;20214;-77
2022/03/10 09:02:09;;;;;;;22.70;16.73;;;10.50;95.50;;;;;;5000658;28;20306;-77
2022/03/10 09:04:36;;;;;;;21.50;17.90;;;10.60;95.60;;;;;;5003835;28;20266;-77
2022/03/10 09:07:03;;;;;;;23.00;16.00;;;10.70;95.10;;;;;;5004344;28;20220;-77
2022/03/10 09:09:30;;;;;;;24.10;17.40;;;11.00;95.50;;;;;;5004019;28;20232;-77
2022/03/10 09:11:57;;;;;;;20.73;16.77;;;11.10;95.50;;;;;;5000334;28;20266;-77
2022/03/10 09:14:24;;;;;;;20.67;16.90;;;11.10;95.60;;;;;;5007582;28;20673;-77
2022/03/10 09:16:52;;;;;;;20.27;15.53;;;11.20;95.40;;;;;;4980934;28;20195;-78
2022/03/10 09:19:20;;;;;;;22.37;16.13;;;11.20;95.50;;;;;;4998229;28;20220;-78
2022/03/10 09:21:47;;;;;;;20.70;15.17;;;11.40;95.80;;;;;;4982053;28;20210;-77
2022/03/10 09:24:14;;;;;;;19.87;16.17;;;11.30;95.40;;;;;;4999215;28;20277;-77
2022/03/10 09:26:41;;;;;;;18.70;16.13;;;11.80;94.00;;;;;;5001249;28;20212;-77
2022/03/10 09:29:08;;;;;;;17.33;15.50;;;12.20;93.70;;;;;;5003693;28;20231;-76
2022/03/10 09:31:35;;;;;;;20.90;17.00;;;12.30;92.50;;;;;;5001985;28;20196;-77
2022/03/10 09:34:04;;;;;;;22.33;16.23;;;12.00;92.30;;;;;;5003202;28;20251;-78
2022/03/10 09:36:31;;;;;;;21.67;17.70;;;11.80;92.60;;;;;;4994393;28;20256;-75
2022/03/10 09:38:58;;;;;;;18.90;16.73;;;11.60;93.20;;;;;;4999918;28;20275;-76
2022/03/10 09:41:28;;;;;;;18.47;15.53;;;11.90;93.10;;;;;;4983473;28;20200;-77
2022/03/10 09:43:56;;;;;;;18.83;16.37;;;12.00;92.50;;;;;;4994849;28;20205;-77
2022/03/10 09:46:23;;;;;;;18.87;16.97;;;11.90;92.70;;;;;;5001627;28;20231;-77
2022/03/10 09:48:50;;;;;;;21.43;16.10;;;11.90;92.70;;;;;;5003957;28;20259;-77
2022/03/10 09:51:22;;;;;;;19.80;14.87;;;12.00;92.70;;;;;;4980829;28;20673;-77
2022/03/10 09:53:48;;;;;;;19.73;15.67;;;11.90;92.80;;;;;;4984048;28;20236;-77
2022/03/10 09:56:16;;;;;;;19.43;15.67;;;11.90;93.20;;;;;;4999463;28;20204;-77
2022/03/10 09:58:43;;;;;;;19.60;15.53;;;12.00;93.40;;;;;;5003044;28;20212;-78
2022/03/10 10:01:17;;;;;;;21.13;14.93;;;12.20;93.80;;;;;;5121632;27;20548;-77
2022/03/10 10:03:44;;;;;;;23.03;15.40;;;12.30;93.50;;;;;;5100458;28;20670;-78
2022/03/10 10:06:11;;;;;;;23.83;16.60;;;12.10;93.40;;;;;;5101352;28;20194;-77
2022/03/10 10:08:41;;;;;;;22.97;15.53;;;12.00;94.00;;;;;;5102682;28;20235;-78
2022/03/10 10:11:08;;;;;;;18.73;16.73;;;11.90;94.60;;;;;;5103084;28;20208;-77
2022/03/10 10:13:37;;;;;;;19.30;16.03;;;11.90;93.50;;;;;;5099338;22;20234;-77
2022/03/10 10:16:06;;;;;;;18.53;15.20;;;11.80;93.90;;;;;;5046079;28;20687;-76
2022/03/10 10:18:35;;;;;;;21.27;14.73;;;11.90;94.10;;;;;;5045866;28;20197;-78
2022/03/10 10:21:03;;;;;;;18.17;14.70;;;12.00;94.40;;;;;;5030534;28;20617;-77
2022/03/10 10:23:32;;;;;;;20.53;15.30;;;12.10;94.90;;;;;;5035490;28;20249;-77
2022/03/10 10:26:00;;;;;;;20.20;14.20;;;12.00;94.50;;;;;;5030357;28;20199;-77
2022/03/10 10:28:29;;;;;;;17.57;13.70;;;11.90;94.80;;;;;;5044429;28;20225;-77
2022/03/10 10:30:58;;;;;;;19.77;13.43;;;11.90;94.80;;;;;;5046921;28;20199;-77
2022/03/10 10:33:26;;;;;;;16.83;12.87;;;11.90;94.50;;;;;;5047177;28;20276;-78
2022/03/10 10:36:12;;;;;;;16.60;13.70;;;11.90;94.30;;;;;;5047907;28;20551;-77
2022/03/10 10:38:40;;;;;;;15.57;13.97;;;11.90;94.70;;;;;;5040852;28;20199;-77
2022/03/10 10:41:17;;;;;;;15.60;14.00;;;12.20;94.80;;;;;;5029397;28;20230;-77
2022/03/10 10:43:47;;;;;;;17.37;14.33;;;12.40;94.30;;;;;;5047866;28;20220;-77
2022/03/10 10:46:23;;;;;;;14.93;13.37;;;12.30;93.40;;;;;;5025038;28;20201;-77
2022/03/10 10:48:49;;;;;;;14.17;12.00;;;12.20;93.70;;;;;;5024745;28;20305;-77
2022/03/10 10:51:38;;;;;;;14.47;10.90;;;12.20;93.40;;;;;;5047745;28;20240;-78
2022/03/10 10:54:07;;;;;;;14.50;10.73;;;12.20;92.90;;;;;;5039285;28;20564;-76
2022/03/10 10:56:35;;;;;;;14.00;10.57;;;12.20;93.00;;;;;;5043660;28;20610;-77
2022/03/10 10:59:03;;;;;;;12.53;10.20;;;12.20;92.70;;;;;;5047560;28;20191;-77
2022/03/10 11:01:31;;;;;;;13.83;10.53;;;12.20;92.60;;;;;;5036093;28;20223;-77
2022/03/10 11:03:58;;;;;;;12.00;10.23;;;12.20;92.50;;;;;;5028104;28;20586;-77
2022/03/10 11:06:26;;;;;;;10.27;9.27;;;12.30;90.50;;;;;;5025939;28;20654;-77
2022/03/10 11:08:54;;;;;;;9.60;8.70;;;12.30;91.30;;;;;;5027540;28;20685;-77
2022/03/10 11:11:22;;;;;;;9.53;8.10;;;12.50;90.30;;;;;;5031712;28;20203;-77
2022/03/10 11:13:49;;;;;;;5.13;4.60;;;12.60;90.10;;;;;;5033531;28;20230;-77
2022/03/10 11:16:17;;;;;;;5.20;3.63;;;12.70;87.30;;;;;;5033981;28;20254;-77
2022/03/10 11:18:49;;;;;;;6.07;5.47;;;12.80;84.70;;;;;;5012389;28;20253;-76
2022/03/10 11:21:49;;;;;;;5.83;5.23;;;12.80;85.20;;;;;;5014318;28;20219;-76
2022/03/10 11:24:47;;;;;;;7.03;6.33;;;12.90;84.70;;;;;;4975559;28;20232;-77
2022/03/10 11:27:17;;;;;;;5.57;5.10;;;13.00;81.50;;;;;;5033232;28;20200;-77
2022/03/10 11:29:49;;;;;;;6.37;5.77;;;13.00;81.40;;;;;;5030406;28;20199;-76
2022/03/10 11:32:16;;;;;;;6.10;5.53;;;13.00;83.00;;;;;;5014088;28;20200;-77
2022/03/10 11:34:49;;;;;;;5.07;3.07;;;13.00;80.40;;;;;;5016461;28;20253;-75
2022/03/10 11:37:50;;;;;;;6.63;2.93;;;13.10;80.50;;;;;;5032356;28;20198;-77
2022/03/10 11:40:21;;;;;;;4.37;3.37;;;13.00;80.20;;;;;;5006023;28;20305;-77
2022/03/10 11:43:01;;;;;;;4.23;3.40;;;13.10;79.50;;;;;;5033573;28;20222;-77
2022/03/10 11:45:30;;;;;;;3.43;2.80;;;13.00;79.80;;;;;;5012511;28;20200;-78
2022/03/10 11:48:38;;;;;;;3.40;2.90;;;13.00;80.90;;;;;;5027324;28;20199;-77
2022/03/10 11:51:18;;;;;;;2.87;2.60;;;13.10;81.30;;;;;;5028701;28;20210;-77
2022/03/10 11:53:55;;;;;;;3.77;2.80;;;13.20;79.60;;;;;;5009975;28;20219;-75
2022/03/10 11:56:35;;;;;;;4.10;2.80;;;13.30;80.00;;;;;;5032515;28;20289;-77
2022/03/10 11:59:17;;;;;;;3.93;2.43;;;13.30;79.90;;;;;;5013122;28;20656;-77
2022/03/10 12:01:44;;;;;;;4.20;2.80;;;13.20;76.70;;;;;;5027168;28;20728;-76
2022/03/10 12:04:15;;;;;;;3.33;3.03;;;13.30;78.30;;;;;;5015587;28;20232;-77
2022/03/10 12:06:49;;;;;;;3.77;2.67;;;13.30;76.80;;;;;;5016019;28;20225;-77
2022/03/10 12:09:29;;;;;;;5.10;2.80;;;13.40;77.30;;;;;;5027887;28;20203;-77
2022/03/10 12:12:16;;;;;;;3.00;2.40;;;13.40;76.00;;;;;;5021437;28;20665;-77
2022/03/10 12:14:44;;;;;;;2.90;2.60;;;13.30;76.50;;;;;;5026061;28;20696;-77
2022/03/10 12:17:40;;;;;;;3.30;2.70;;;13.30;77.60;;;;;;5014310;28;20246;-77
2022/03/10 12:20:15;;;;;;;4.00;2.57;;;13.30;77.60;;;;;;5028861;28;20216;-77
2022/03/10 12:23:09;;;;;;;4.00;2.80;;;13.20;77.30;;;;;;5030517;28;20745;-77
2022/03/10 12:25:39;;;;;;;4.83;3.27;;;13.20;77.60;;;;;;5025569;28;20249;-76
2022/03/10 12:28:08;;;;;;;6.77;6.20;;;13.30;77.30;;;;;;5032065;28;20289;-77
2022/03/10 12:30:41;;;;;;;6.67;6.10;;;13.30;77.20;;;;;;5029274;28;20200;-77
2022/03/10 12:33:08;;;;;;;6.93;6.23;;;13.40;77.50;;;;;;5031970;28;20215;-75
2022/03/10 12:35:36;;;;;;;4.90;4.40;;;13.50;78.00;;;;;;5031635;28;20220;-77
2022/03/10 12:38:04;;;;;;;6.30;5.77;;;13.60;78.30;;;;;;5031674;28;20278;-78
2022/03/10 12:40:33;;;;;;;6.80;5.87;;;13.50;77.40;;;;;;5032550;28;20218;-77
2022/03/10 12:43:01;;;;;;;6.00;5.53;;;13.60;77.60;;;;;;5032474;28;20274;-77